Terminal Aerodrome Forecast
Issued by NWS

Home | Current Version | Previous Version | Text Only | Print | Product List | Glossary On
Versions: 1 2 3 4 5 6 7 8 9 10 11 12 13 14 15 16 17 18 19 20 21 22 23 24 25
000
FTUS43 KICT 270543 AAA
TAFRSL
TAF AMD
KRSL 270543Z 2706/2806 10015G23KT P6SM VCTS OVC030CB
      TEMPO 2706/2708 BKN006CB
     FM271100 15008KT 6SM BR OVC009
     FM271600 16013KT P6SM SCT035
     FM272100 14011KT P6SM VCTS SCT035CB OVC120=

USA.gov is the U.S. government's official web portal to all federal, state and local government web resources and services.